| time (UTC) | temp C | wind direction | speed KPH | gust KPH | rain 1hr cm | rain 24hr cm | rain mn cm | humidity % | barometer mb |
| 20260502152331 | 15 | 196 | 9.7 | 19.3 | 0.00 | 0.00 | 0.00 | 33 | 1016.1 |
| 20260502151838 | 15 | 185 | 9.7 | 19.3 | 0.00 | 0.00 | 0.00 | 33 | 1016.1 |
| 20260502151325 | 14 | 192 | 8.0 | 25.7 | 0.00 | 0.00 | 0.00 | 34 | 1016.1 |
| 20260502150830 | 14 | 224 | 12.9 | 25.7 | 0.00 | 0.00 | 0.00 | 33 | 1016.6 |
| 20260502150338 | 13 | 227 | 11.3 | 20.9 | 0.00 | 0.00 | 0.00 | 35 | 1016.6 |
| 20260502130325 | 8 | 208 | 8.0 | 16.1 | 0.00 | 0.00 | 0.00 | 46 | 1019.1 |
| 20260502123331 | 7 | 256 | 4.8 | 17.7 | 0.00 | 0.00 | 0.00 | 46 | 1018.7 |
| 20260502122818 | 7 | 161 | 6.4 | 17.7 | 0.00 | 0.00 | 0.00 | 46 | 1019.0 |
| 20260502122329 | 7 | 200 | 4.8 | 11.3 | 0.00 | 0.00 | 0.00 | 46 | 1019.0 |
| 20260502121836 | 7 | 232 | 6.4 | 11.3 | 0.00 | 0.00 | 0.00 | 46 | 1019.0 |
| 20260502121324 | 7 | 224 | 3.2 | 11.3 | 0.00 | 0.00 | 0.00 | 46 | 1019.0 |
| 20260502120828 | 7 | 234 | 6.4 | 11.3 | 0.00 | 0.00 | 0.00 | 47 | 1019.0 |
| 20260502120334 | 7 | 236 | 6.4 | 11.3 | 0.00 | 0.00 | 0.00 | 47 | 1019.0 |
| 20260502115820 | 7 | 251 | 6.4 | 12.9 | 0.00 | 0.00 | 0.00 | 48 | 1019.3 |
| 20260502115329 | 7 | 241 | 6.4 | 12.9 | 0.00 | 0.00 | 0.00 | 48 | 1019.3 |
| 20260502114820 | 7 | 234 | 3.2 | 11.3 | 0.00 | 0.00 | 0.00 | 48 | 1019.3 |
| 20260502114328 | 6 | 206 | 3.2 | 11.3 | 0.00 | 0.00 | 0.00 | 48 | 1019.3 |
| 20260502113834 | 6 | 196 | 3.2 | 11.3 | 0.00 | 0.00 | 0.00 | 48 | 1019.4 |
| 20260502113324 | 6 | 216 | 3.2 | 8.0 | 0.00 | 0.00 | 0.00 | 48 | 1019.4 |
| 20260502112831 | 6 | 248 | 3.2 | 9.7 | 0.00 | 0.00 | 0.00 | 48 | 1019.4 |
| 20260502112318 | 7 | 210 | 3.2 | 8.0 | 0.00 | 0.00 | 0.00 | 48 | 1019.4 |
| 20260502111824 | 7 | 208 | 3.2 | 8.0 | 0.00 | 0.00 | 0.00 | 47 | 1019.4 |
| 20260502111332 | 7 | 232 | 3.2 | 11.3 | 0.00 | 0.00 | 0.00 | 47 | 1019.4 |
| 20260502110820 | 7 | 246 | 4.8 | 11.3 | 0.00 | 0.00 | 0.00 | 47 | 1019.5 |
| 20260502110326 | 7 | 224 | 4.8 | 11.3 | 0.00 | 0.00 | 0.00 | 47 | 1019.5 |
| 20260502105837 | 7 | 220 | 6.4 | 12.9 | 0.00 | 0.00 | 0.00 | 47 | 1019.5 |
| 20260502105325 | 7 | 316 | 4.8 | 11.3 | 0.00 | 0.00 | 0.00 | 47 | 1019.5 |
| 20260502104831 | 7 | 265 | 3.2 | 11.3 | 0.00 | 0.00 | 0.00 | 47 | 1019.5 |
| 20260502104320 | 7 | 220 | 3.2 | 11.3 | 0.00 | 0.00 | 0.00 | 47 | 1019.4 |
| 20260502103827 | 7 | 232 | 4.8 | 9.7 | 0.00 | 0.00 | 0.00 | 47 | 1019.4 |
| 20260502103334 | 7 | 232 | 4.8 | 9.7 | 0.00 | 0.00 | 0.00 | 47 | 1019.4 |
| 20260502102820 | 7 | 216 | 4.8 | 11.3 | 0.00 | 0.00 | 0.00 | 47 | 1019.4 |
| 20260502102328 | 7 | 239 | 6.4 | 11.3 | 0.00 | 0.00 | 0.00 | 47 | 1019.4 |
| 20260502101833 | 7 | 244 | 3.2 | 12.9 | 0.00 | 0.00 | 0.00 | 47 | 1019.4 |
| 20260502101325 | 7 | 233 | 9.7 | 17.7 | 0.00 | 0.00 | 0.00 | 46 | 1019.4 |
| 20260502100830 | 7 | 217 | 4.8 | 17.7 | 0.00 | 0.00 | 0.00 | 46 | 1019.6 |
| 20260502100318 | 7 | 226 | 9.7 | 17.7 | 0.00 | 0.00 | 0.00 | 46 | 1019.6 |
| 20260502091338 | 7 | 216 | 8.0 | 17.7 | 0.00 | 0.00 | 0.00 | 46 | 1019.6 |
| 20260502090826 | 7 | 199 | 6.4 | 17.7 | 0.00 | 0.00 | 0.00 | 46 | 1019.9 |
| 20260502090332 | 7 | 233 | 4.8 | 16.1 | 0.00 | 0.00 | 0.00 | 47 | 1019.9 |
| 20260502071320 | 7 | 247 | 6.4 | 9.7 | 0.00 | 0.00 | 0.00 | 45 | 1021.2 |
| 20260502070830 | 7 | 219 | 1.6 | 11.3 | 0.00 | 0.00 | 0.00 | 45 | 1021.2 |
| 20260502070322 | 7 | 236 | 8.0 | 11.3 | 0.00 | 0.00 | 0.00 | 45 | 1021.2 |
| 20260502065829 | 7 | 244 | 1.6 | 9.7 | 0.00 | 0.00 | 0.00 | 45 | 1021.2 |
| 20260502065336 | 7 | 154 | 1.6 | 9.7 | 0.00 | 0.00 | 0.00 | 45 | 1021.2 |
| 20260502064824 | 7 | 232 | 1.6 | 11.3 | 0.00 | 0.00 | 0.00 | 45 | 1021.2 |
| 20260502064333 | 7 | 206 | 3.2 | 11.3 | 0.00 | 0.00 | 0.00 | 45 | 1021.2 |
| 20260502063820 | 7 | 236 | 3.2 | 9.7 | 0.00 | 0.00 | 0.00 | 44 | 1021.3 |
| 20260502063326 | 7 | 220 | 4.8 | 9.7 | 0.00 | 0.00 | 0.00 | 44 | 1021.3 |
| 20260502062834 | 7 | 234 | 4.8 | 12.9 | 0.00 | 0.00 | 0.00 | 44 | 1021.3 |
| 20260502062321 | 7 | 258 | 8.0 | 12.9 | 0.00 | 0.00 | 0.00 | 43 | 1021.4 |
| 20260502061832 | 7 | 257 | 8.0 | 12.9 | 0.00 | 0.00 | 0.00 | 43 | 1021.4 |
| 20260502061319 | 7 | 220 | 11.3 | 12.9 | 0.00 | 0.00 | 0.00 | 44 | 1021.6 |
| 20260502060829 | 7 | 241 | 8.0 | 12.9 | 0.00 | 0.00 | 0.00 | 44 | 1021.6 |
| 20260502060336 | 7 | 248 | 6.4 | 9.7 | 0.00 | 0.00 | 0.00 | 44 | 1021.6 |
| 20260502055824 | 7 | 239 | 4.8 | 12.9 | 0.00 | 0.00 | 0.00 | 44 | 1021.6 |
| 20260502055331 | 7 | 258 | 6.4 | 11.3 | 0.00 | 0.00 | 0.00 | 43 | 1021.6 |
| 20260502054837 | 8 | 244 | 4.8 | 12.9 | 0.00 | 0.00 | 0.00 | 43 | 1021.6 |
| 20260502054327 | 8 | 254 | 6.4 | 12.9 | 0.00 | 0.00 | 0.00 | 43 | 1021.6 |
| 20260502053832 | 8 | 244 | 4.8 | 11.3 | 0.00 | 0.00 | 0.00 | 42 | 1021.6 |
| 20260502053322 | 8 | 243 | 4.8 | 9.7 | 0.00 | 0.00 | 0.00 | 42 | 1021.6 |
| 20260502052830 | 8 | 243 | 3.2 | 9.7 | 0.00 | 0.00 | 0.00 | 42 | 1021.6 |
| 20260502052336 | 8 | 232 | 3.2 | 9.7 | 0.00 | 0.00 | 0.00 | 42 | 1021.6 |
| 20260502051824 | 8 | 220 | 3.2 | 9.7 | 0.00 | 0.00 | 0.00 | 41 | 1021.6 |
| 20260502051332 | 8 | 261 | 3.2 | 16.1 | 0.00 | 0.00 | 0.00 | 41 | 1021.6 |
| 20260502050837 | 8 | 224 | 8.0 | 16.1 | 0.00 | 0.00 | 0.00 | 41 | 1021.9 |
| 20260502050325 | 8 | 251 | 6.4 | 11.3 | 0.00 | 0.00 | 0.00 | 40 | 1021.9 |
| 20260502045831 | 8 | 229 | 6.4 | 11.3 | 0.00 | 0.00 | 0.00 | 40 | 1021.9 |
| 20260502045337 | 8 | 220 | 6.4 | 12.9 | 0.00 | 0.00 | 0.00 | 40 | 1022.0 |
| 20260502044823 | 8 | 241 | 8.0 | 12.9 | 0.00 | 0.00 | 0.00 | 40 | 1022.0 |
| 20260502044336 | 8 | 230 | 6.4 | 11.3 | 0.00 | 0.00 | 0.00 | 40 | 1022.0 |
| 20260502043824 | 9 | 248 | 4.8 | 11.3 | 0.00 | 0.00 | 0.00 | 40 | 1022.0 |
| 20260502043329 | 9 | 223 | 3.2 | 3.2 | 0.00 | 0.00 | 0.00 | 40 | 1022.0 |
| 20260502042837 | 9 | 223 | 0.0 | 6.4 | 0.00 | 0.00 | 0.00 | 39 | 1022.0 |
| 20260502042324 | 9 | 247 | 3.2 | 6.4 | 0.00 | 0.00 | 0.00 | 39 | 1022.1 |
| 20260502041833 | 9 | 212 | 1.6 | 4.8 | 0.00 | 0.00 | 0.00 | 39 | 1022.1 |
| 20260502041321 | 9 | 212 | 3.2 | 3.2 | 0.00 | 0.00 | 0.00 | 39 | 1022.4 |
| 20260502040828 | 10 | 212 | 1.6 | 3.2 | 0.00 | 0.00 | 0.00 | 38 | 1022.4 |
| 20260502040335 | 10 | 212 | 3.2 | 3.2 | 0.00 | 0.00 | 0.00 | 38 | 1022.4 |
| 20260502035827 | 10 | 212 | 1.6 | 4.8 | 0.00 | 0.00 | 0.00 | 38 | 1022.4 |
| 20260502035333 | 10 | 212 | 1.6 | 4.8 | 0.00 | 0.00 | 0.00 | 37 | 1022.3 |
| 20260502034821 | 10 | 229 | 1.6 | 3.2 | 0.00 | 0.00 | 0.00 | 37 | 1022.3 |
| 20260502034329 | 10 | 229 | 1.6 | 4.8 | 0.00 | 0.00 | 0.00 | 37 | 1022.3 |
| 20260502033836 | 10 | 229 | 1.6 | 8.0 | 0.00 | 0.00 | 0.00 | 37 | 1022.2 |
| 20260502033323 | 10 | 234 | 3.2 | 8.0 | 0.00 | 0.00 | 0.00 | 37 | 1022.2 |
| 20260502032831 | 10 | 212 | 0.0 | 6.4 | 0.00 | 0.00 | 0.00 | 37 | 1022.2 |
| 20260502032338 | 11 | 195 | 0.0 | 3.2 | 0.00 | 0.00 | 0.00 | 36 | 1022.2 |
| 20260502031823 | 11 | 195 | 1.6 | 3.2 | 0.00 | 0.00 | 0.00 | 36 | 1022.2 |
| 20260502031331 | 11 | 195 | 1.6 | 3.2 | 0.00 | 0.00 | 0.00 | 35 | 1022.2 |
| 20260502030821 | 11 | 195 | 1.6 | 3.2 | 0.00 | 0.00 | 0.00 | 35 | 1022.3 |
| 20260502030326 | 11 | 195 | 1.6 | 3.2 | 0.00 | 0.00 | 0.00 | 34 | 1022.3 |
| 20260502025833 | 11 | 195 | 1.6 | 3.2 | 0.00 | 0.00 | 0.00 | 34 | 1022.3 |
| 20260502025319 | 12 | 195 | 1.6 | 3.2 | 0.00 | 0.00 | 0.00 | 33 | 1022.3 |
| 20260502024825 | 12 | 195 | 1.6 | 4.8 | 0.00 | 0.00 | 0.00 | 32 | 1022.3 |
| 20260502024332 | 12 | 195 | 1.6 | 4.8 | 0.00 | 0.00 | 0.00 | 32 | 1022.3 |
| 20260502023819 | 12 | 213 | 0.0 | 8.0 | 0.00 | 0.00 | 0.00 | 31 | 1022.1 |
| 20260502023326 | 12 | 227 | 3.2 | 8.0 | 0.00 | 0.00 | 0.00 | 31 | 1022.1 |
| 20260502022835 | 12 | 220 | 0.0 | 4.8 | 0.00 | 0.00 | 0.00 | 31 | 1022.1 |
| 20260502022324 | 12 | 220 | 1.6 | 3.2 | 0.00 | 0.00 | 0.00 | 30 | 1021.9 |
| 20260502021832 | 13 | 220 | 1.6 | 3.2 | 0.00 | 0.00 | 0.00 | 30 | 1021.9 |
| 20260502021338 | 13 | 220 | 1.6 | 3.2 | 0.00 | 0.00 | 0.00 | 29 | 1021.9 |
| 20260502020826 | 13 | 220 | 0.0 | 3.2 | 0.00 | 0.00 | 0.00 | 29 | 1022.2 |
| 20260502020334 | 13 | 210 | 1.6 | 4.8 | 0.00 | 0.00 | 0.00 | 29 | 1022.2 |
| 20260502015821 | 13 | 220 | 1.6 | 4.8 | 0.00 | 0.00 | 0.00 | 28 | 1022.2 |
| 20260502015328 | 14 | 206 | 0.0 | 6.4 | 0.00 | 0.00 | 0.00 | 28 | 1022.2 |
| 20260502014838 | 14 | 206 | 1.6 | 6.4 | 0.00 | 0.00 | 0.00 | 28 | 1022.2 |
| 20260502014326 | 14 | 236 | 3.2 | 4.8 | 0.00 | 0.00 | 0.00 | 28 | 1022.2 |
| 20260502013833 | 15 | 243 | 0.0 | 3.2 | 0.00 | 0.00 | 0.00 | 27 | 1022.1 |
| 20260502013322 | 15 | 241 | 0.0 | 3.2 | 0.00 | 0.00 | 0.00 | 27 | 1022.1 |
| 20260502012830 | 15 | 241 | 1.6 | 4.8 | 0.00 | 0.00 | 0.00 | 27 | 1022.1 |
| 20260502012338 | 15 | 243 | 1.6 | 4.8 | 0.00 | 0.00 | 0.00 | 26 | 1022.1 |
| 20260502011825 | 15 | 232 | 3.2 | 4.8 | 0.00 | 0.00 | 0.00 | 26 | 1022.1 |
| 20260502011331 | 15 | 236 | 3.2 | 4.8 | 0.00 | 0.00 | 0.00 | 26 | 1022.1 |
| 20260502010838 | 15 | 220 | 3.2 | 8.0 | 0.00 | 0.00 | 0.00 | 26 | 1021.4 |
| 20260502010323 | 16 | 220 | 0.0 | 4.8 | 0.00 | 0.00 | 0.00 | 26 | 1021.4 |
| 20260502005832 | 16 | 219 | 1.6 | 4.8 | 0.00 | 0.00 | 0.00 | 26 | 1021.4 |
| 20260502005338 | 16 | 248 | 1.6 | 4.8 | 0.00 | 0.00 | 0.00 | 25 | 1021.5 |
| 20260502004830 | 16 | 248 | 3.2 | 6.4 | 0.00 | 0.00 | 0.00 | 24 | 1021.5 |
| 20260502004337 | 16 | 233 | 3.2 | 8.0 | 0.00 | 0.00 | 0.00 | 25 | 1021.5 |
| 20260502003824 | 16 | 237 | 4.8 | 8.0 | 0.00 | 0.00 | 0.00 | 24 | 1021.6 |
| 20260502003331 | 16 | 240 | 0.0 | 11.3 | 0.00 | 0.00 | 0.00 | 24 | 1021.6 |
| 20260502002819 | 16 | 224 | 6.4 | 11.3 | 0.00 | 0.00 | 0.00 | 23 | 1022.5 |
| 20260502002327 | 16 | 246 | 3.2 | 12.9 | 0.00 | 0.00 | 0.00 | 23 | 1022.5 |
| 20260502001833 | 17 | 220 | 4.8 | 12.9 | 0.00 | 0.00 | 0.00 | 24 | 1022.5 |
| 20260502001321 | 17 | 236 | 1.6 | 4.8 | 0.00 | 0.00 | 0.00 | 23 | 1022.7 |
| 20260502000831 | 17 | 239 | 1.6 | 9.7 | 0.00 | 0.00 | 0.00 | 23 | 1021.7 |
| 20260502000321 | 17 | 233 | 4.8 | 9.7 | 0.00 | 0.00 | 0.00 | 23 | 1021.7 |
| 20260501235828 | 17 | 359 | 3.2 | 9.7 | 0.00 | 0.00 | 0.00 | 24 | 1021.7 |
| 20260501235334 | 17 | 284 | 3.2 | 16.1 | 0.00 | 0.00 | 0.00 | 23 | 1021.8 |
| 20260501234820 | 17 | 305 | 4.8 | 16.1 | 0.00 | 0.00 | 0.00 | 22 | 1021.8 |
| 20260501234327 | 17 | 346 | 1.6 | 9.7 | 0.00 | 0.00 | 0.00 | 22 | 1021.8 |
| 20260501233834 | 17 | 312 | 4.8 | 16.1 | 0.00 | 0.00 | 0.00 | 23 | 1021.8 |
| 20260501233326 | 17 | 319 | 4.8 | 16.1 | 0.00 | 0.00 | 0.00 | 22 | 1021.8 |
| 20260501232828 | 17 | 320 | 8.0 | 12.9 | 0.00 | 0.00 | 0.00 | 22 | 1021.8 |
| 20260501232333 | 17 | 333 | 6.4 | 12.9 | 0.00 | 0.00 | 0.00 | 22 | 1021.8 |
| 20260501231819 | 17 | 243 | 6.4 | 12.9 | 0.00 | 0.00 | 0.00 | 23 | 1021.8 |
| 20260501231331 | 17 | 237 | 6.4 | 19.3 | 0.00 | 0.00 | 0.00 | 23 | 1021.8 |
| 20260501230837 | 17 | 263 | 4.8 | 19.3 | 0.00 | 0.00 | 0.00 | 22 | 1021.9 |
| 20260501230322 | 17 | 309 | 4.8 | 19.3 | 0.00 | 0.00 | 0.00 | 23 | 1021.9 |
| 20260501225830 | 17 | 241 | 3.2 | 19.3 | 0.00 | 0.00 | 0.00 | 23 | 1021.9 |
| 20260501225337 | 17 | 336 | 8.0 | 19.3 | 0.00 | 0.00 | 0.00 | 24 | 1022.0 |
| 20260501224825 | 17 | 330 | 8.0 | 12.9 | 0.00 | 0.00 | 0.00 | 23 | 1022.0 |
| 20260501224332 | 17 | 32 | 4.8 | 12.9 | 0.00 | 0.00 | 0.00 | 23 | 1022.0 |
| 20260501223820 | 16 | 116 | 1.6 | 11.3 | 0.00 | 0.00 | 0.00 | 24 | 1022.2 |
| 20260501223327 | 16 | 37 | 4.8 | 9.7 | 0.00 | 0.00 | 0.00 | 25 | 1022.2 |
| 20260501222834 | 16 | 55 | 1.6 | 8.0 | 0.00 | 0.00 | 0.00 | 25 | 1022.2 |
| 20260501222325 | 15 | 258 | 1.6 | 6.4 | 0.00 | 0.00 | 0.00 | 25 | 1022.4 |
| 20260501221833 | 15 | 27 | 1.6 | 9.7 | 0.00 | 0.00 | 0.00 | 26 | 1022.4 |
| 20260501221319 | 15 | 38 | 6.4 | 12.9 | 0.00 | 0.00 | 0.00 | 25 | 1022.3 |
| 20260501220827 | 16 | 13 | 9.7 | 11.3 | 0.00 | 0.00 | 0.00 | 25 | 1022.3 |
| 20260501220334 | 16 | 54 | 1.6 | 11.3 | 0.00 | 0.00 | 0.00 | 25 | 1022.3 |
| 20260501215821 | 16 | 318 | 3.2 | 16.1 | 0.00 | 0.00 | 0.00 | 24 | 1022.6 |
| 20260501215332 | 16 | 82 | 8.0 | 12.9 | 0.00 | 0.00 | 0.00 | 25 | 1022.6 |
| 20260501214838 | 16 | 360 | 1.6 | 9.7 | 0.00 | 0.00 | 0.00 | 25 | 1022.6 |
| 20260501214326 | 15 | 55 | 1.6 | 11.3 | 0.00 | 0.00 | 0.00 | 27 | 1022.6 |
| 20260501213836 | 15 | 336 | 4.8 | 11.3 | 0.00 | 0.00 | 0.00 | 26 | 1022.7 |
| 20260501213324 | 15 | 318 | 6.4 | 11.3 | 0.00 | 0.00 | 0.00 | 26 | 1022.7 |
| 20260501212831 | 15 | 316 | 0.0 | 11.3 | 0.00 | 0.00 | 0.00 | 28 | 1022.7 |
| 20260501212338 | 15 | 323 | 3.2 | 11.3 | 0.00 | 0.00 | 0.00 | 27 | 1022.8 |
| 20260501211825 | 15 | 356 | 6.4 | 9.7 | 0.00 | 0.00 | 0.00 | 26 | 1022.8 |
| 20260501211332 | 15 | 357 | 6.4 | 9.7 | 0.00 | 0.00 | 0.00 | 27 | 1022.8 |
| 20260501210819 | 15 | 11 | 4.8 | 16.1 | 0.00 | 0.00 | 0.00 | 28 | 1022.9 |
| 20260501210327 | 15 | 112 | 6.4 | 16.1 | 0.00 | 0.00 | 0.00 | 27 | 1022.9 |
| 20260501205835 | 15 | 25 | 3.2 | 16.1 | 0.00 | 0.00 | 0.00 | 28 | 1022.9 |
| 20260501205325 | 15 | 278 | 8.0 | 19.3 | 0.00 | 0.00 | 0.00 | 26 | 1022.9 |
| 20260501204833 | 15 | 69 | 12.9 | 19.3 | 0.00 | 0.00 | 0.00 | 27 | 1022.9 |
| 20260501204321 | 15 | 42 | 8.0 | 16.1 | 0.00 | 0.00 | 0.00 | 27 | 1023.0 |
| 20260501203828 | 15 | 51 | 1.6 | 9.7 | 0.00 | 0.00 | 0.00 | 28 | 1023.0 |
| 20260501203332 | 15 | 78 | 3.2 | 14.5 | 0.00 | 0.00 | 0.00 | 27 | 1023.0 |
| 20260501202819 | 15 | 48 | 11.3 | 16.1 | 0.00 | 0.00 | 0.00 | 28 | 1023.0 |
| 20260501202329 | 15 | 344 | 9.7 | 16.1 | 0.00 | 0.00 | 0.00 | 27 | 1023.0 |
| 20260501201835 | 15 | 356 | 6.4 | 16.1 | 0.00 | 0.00 | 0.00 | 28 | 1023.0 |
| 20260501201321 | 15 | 44 | 6.4 | 16.1 | 0.00 | 0.00 | 0.00 | 27 | 1023.0 |
| 20260501200832 | 15 | 92 | 3.2 | 16.1 | 0.00 | 0.00 | 0.00 | 28 | 1023.0 |
| 20260501200323 | 15 | 52 | 8.0 | 16.1 | 0.00 | 0.00 | 0.00 | 28 | 1023.0 |
| 20260501195831 | 15 | 44 | 8.0 | 12.9 | 0.00 | 0.00 | 0.00 | 28 | 1023.0 |
| 20260501195337 | 15 | 20 | 4.8 | 11.3 | 0.00 | 0.00 | 0.00 | 28 | 1023.2 |
| 20260501194824 | 15 | 335 | 3.2 | 25.7 | 0.00 | 0.00 | 0.00 | 27 | 1023.2 |
| 20260501194332 | 15 | 10 | 8.0 | 25.7 | 0.00 | 0.00 | 0.00 | 27 | 1023.2 |
| 20260501193837 | 15 | 42 | 8.0 | 16.1 | 0.00 | 0.00 | 0.00 | 27 | 1022.9 |
| 20260501193325 | 15 | 337 | 8.0 | 16.1 | 0.00 | 0.00 | 0.00 | 26 | 1022.9 |
| 20260501192830 | 15 | 61 | 8.0 | 16.1 | 0.00 | 0.00 | 0.00 | 27 | 1022.9 |
| 20260501192320 | 15 | 97 | 4.8 | 9.7 | 0.00 | 0.00 | 0.00 | 26 | 1023.1 |
| 20260501191830 | 15 | 73 | 4.8 | 9.7 | 0.00 | 0.00 | 0.00 | 28 | 1023.1 |
| 20260501191336 | 15 | 243 | 3.2 | 16.1 | 0.00 | 0.00 | 0.00 | 28 | 1023.1 |
| 20260501190824 | 15 | 329 | 4.8 | 22.5 | 0.00 | 0.00 | 0.00 | 28 | 1023.0 |
| 20260501190332 | 15 | 352 | 8.0 | 22.5 | 0.00 | 0.00 | 0.00 | 28 | 1023.0 |
| 20260501185839 | 15 | 61 | 3.2 | 11.3 | 0.00 | 0.00 | 0.00 | 29 | 1023.0 |
| 20260501185326 | 14 | 8 | 3.2 | 14.5 | 0.00 | 0.00 | 0.00 | 29 | 1023.3 |
| 20260501184833 | 14 | 3 | 8.0 | 14.5 | 0.00 | 0.00 | 0.00 | 30 | 1023.3 |
| 20260501184320 | 14 | 360 | 4.8 | 17.7 | 0.00 | 0.00 | 0.00 | 29 | 1023.3 |
| 20260501183827 | 14 | 326 | 12.9 | 17.7 | 0.00 | 0.00 | 0.00 | 29 | 1023.3 |
| 20260501183335 | 14 | 7 | 9.7 | 17.7 | 0.00 | 0.00 | 0.00 | 29 | 1023.3 |
| 20260501182826 | 14 | 322 | 6.4 | 17.7 | 0.00 | 0.00 | 0.00 | 29 | 1023.3 |
| 20260501182333 | 13 | 339 | 4.8 | 16.1 | 0.00 | 0.00 | 0.00 | 29 | 1023.3 |
| 20260501181819 | 13 | 316 | 4.8 | 16.1 | 0.00 | 0.00 | 0.00 | 30 | 1023.3 |
| 20260501181327 | 13 | 48 | 9.7 | 16.1 | 0.00 | 0.00 | 0.00 | 30 | 1023.3 |
| 20260501180834 | 13 | 311 | 4.8 | 12.9 | 0.00 | 0.00 | 0.00 | 31 | 1023.4 |
| 20260501180319 | 13 | 246 | 3.2 | 16.1 | 0.00 | 0.00 | 0.00 | 32 | 1023.4 |
| 20260501175830 | 13 | 6 | 6.4 | 16.1 | 0.00 | 0.00 | 0.00 | 34 | 1023.4 |
| 20260501175337 | 13 | 344 | 4.8 | 14.5 | 0.00 | 0.00 | 0.00 | 32 | 1023.6 |
| 20260501174823 | 12 | 254 | 8.0 | 16.1 | 0.00 | 0.00 | 0.00 | 33 | 1023.6 |
| 20260501174332 | 12 | 280 | 8.0 | 17.7 | 0.00 | 0.00 | 0.00 | 34 | 1023.6 |
| 20260501173819 | 12 | 309 | 0.0 | 17.7 | 0.00 | 0.00 | 0.00 | 34 | 1024.0 |
| 20260501173328 | 12 | 357 | 4.8 | 19.3 | 0.00 | 0.00 | 0.00 | 33 | 1024.0 |
| 20260501172836 | 12 | 47 | 11.3 | 19.3 | 0.00 | 0.00 | 0.00 | 32 | 1024.0 |
| 20260501172322 | 12 | 333 | 9.7 | 19.3 | 0.00 | 0.00 | 0.00 | 34 | 1023.9 |
| 20260501171830 | 12 | 56 | 9.7 | 19.3 | 0.00 | 0.00 | 0.00 | 33 | 1023.9 |
| 20260501171336 | 12 | 17 | 8.0 | 14.5 | 0.00 | 0.00 | 0.00 | 33 | 1023.9 |
| 20260501170823 | 12 | 89 | 4.8 | 11.3 | 0.00 | 0.00 | 0.00 | 33 | 1023.9 |
| 20260501170329 | 12 | 299 | 8.0 | 9.7 | 0.00 | 0.00 | 0.00 | 33 | 1023.9 |
| 20260501165821 | 11 | 243 | 3.2 | 14.5 | 0.00 | 0.00 | 0.00 | 33 | 1023.9 |
| 20260501165328 | 11 | 304 | 3.2 | 14.5 | 0.00 | 0.00 | 0.00 | 33 | 1023.9 |
| 20260501164836 | 11 | 175 | 4.8 | 11.3 | 0.00 | 0.00 | 0.00 | 35 | 1023.9 |
| 20260501164321 | 11 | 339 | 3.2 | 11.3 | 0.00 | 0.00 | 0.00 | 35 | 1024.1 |
| 20260501163831 | 11 | 308 | 3.2 | 9.7 | 0.00 | 0.00 | 0.00 | 35 | 1024.1 |
| 20260501163319 | 10 | 302 | 4.8 | 9.7 | 0.00 | 0.00 | 0.00 | 35 | 1024.1 |
| 20260501162826 | 10 | 10 | 4.8 | 9.7 | 0.00 | 0.00 | 0.00 | 36 | 1024.1 |
| 20260501162333 | 10 | 239 | 1.6 | 9.7 | 0.00 | 0.00 | 0.00 | 38 | 1024.0 |
| 20260501161819 | 10 | 360 | 1.6 | 9.7 | 0.00 | 0.00 | 0.00 | 38 | 1024.0 |
| 20260501161327 | 10 | 308 | 6.4 | 9.7 | 0.00 | 0.00 | 0.00 | 39 | 1024.0 |
| 20260501160837 | 9 | 343 | 1.6 | 9.7 | 0.00 | 0.00 | 0.00 | 38 | 1024.1 |
| 20260501160322 | 9 | 356 | 6.4 | 11.3 | 0.00 | 0.00 | 0.00 | 38 | 1024.1 |
| 20260501155828 | 9 | 323 | 6.4 | 11.3 | 0.00 | 0.00 | 0.00 | 38 | 1024.1 |
| 20260501155335 | 8 | 360 | 3.2 | 6.4 | 0.00 | 0.00 | 0.00 | 40 | 1024.3 |
| 20260501154821 | 8 | 265 | 3.2 | 11.3 | 0.00 | 0.00 | 0.00 | 41 | 1024.3 |
| 20260501154328 | 8 | 239 | 1.6 | 11.3 | 0.00 | 0.00 | 0.00 | 42 | 1024.3 |
| 20260501153836 | 8 | 232 | 4.8 | 11.3 | 0.00 | 0.00 | 0.00 | 42 | 1024.4 |
| 20260501153323 | 7 | 343 | 4.8 | 11.3 | 0.00 | 0.00 | 0.00 | 42 | 1024.4 |
| 20260501152830 | 7 | 306 | 1.6 | 9.7 | 0.00 | 0.00 | 0.00 | 42 | 1024.4 |